Horsham, Australia
Current Conditions -  °F | °C
As of 4:00 AM on Sunday 26 Oct 2014 (Local Time) from YMTG Reporting Station
Overcast Overcast  
Wind Chill: 46°   Ceiling: 1000
Heat Index: 46°   Visibility: 6mi
Dew Point: 46°   Wind: 3mph
Humidity: 100%   Direction: 170°S
Pressure: 29.94"   Gusts: NA
Location:  36.71°S, 142.2°E
Report Text: YMTG 251700Z AUTO 17003KT 9999 // OVC010 08/08 Q1014
Loading
Personal Weather Stations






























Interactive Weather Map
Tropical Storm Tracking
New forecast layout! Learn more

10-Day Weather Forecast

Advertisements
Track Severe Weather on mobile